Past Weather in Mount Vernon, Ohio, USA — Yesterday or Further Back
Flag for USA

Past Weather in Mount Vernon, Ohio, USA — Yesterday and Last 2 Weeks

Currently: 34 °F. Clear. (Weather station: Knox County Airport, USA). See more current weather

Past Weather in Mount Vernon — Graph

°F

Mount Vernon Temperature Yesterday

Maximum temperature yesterday: 43 °F (at 2:15 pm)
Minimum temperature yesterday: 23 °F (at 5:35 am)
Average temperature yesterday: 33 °F

High & Low Weather Summary for the Past Weeks

 TemperatureHumidityPressure
High77 °F (Nov 8, 1:35 pm)100% (Nov 7, 6:55 am)30.62 "Hg (Nov 7, 6:55 am)
Low23 °F (Nov 18, 5:35 am)33% (Nov 4, 1:55 pm)29.52 "Hg (Nov 15, 12:15 pm)
Average49 °F65%30.19 "Hg
* Reported Nov 4 5:35 am — Nov 19 5:15 am, Mount Vernon. Weather by CustomWeather, © 2020

Note: Actual official high and low records may vary slightly from our data, if they occured in-between our weather recording intervals... More about our weather records

Mount Vernon Weather History for the Previous 24 Hours

Scroll right to see more
 ConditionsComfort  
Time TempWeatherWind HumidityBarometerVisibility
5:15 am
Thu, Nov 19
34 °FClear.8 mph56%30.35 "Hg10 mi
4:55 am34 °FClear.9 mph56%30.35 "Hg10 mi
4:35 am36 °FClear.8 mph52%30.35 "Hg10 mi
4:15 am36 °FClear.9 mph52%30.36 "Hg10 mi
3:55 am34 °FClear.8 mph56%30.36 "Hg10 mi
3:35 am34 °FClear.7 mph60%30.37 "Hg10 mi
3:15 am34 °FClear.8 mph56%30.38 "Hg10 mi
2:55 am34 °FClear.7 mph60%30.39 "Hg10 mi
2:35 am34 °FClear.8 mph60%30.39 "Hg10 mi
2:15 am34 °FClear.9 mph60%30.39 "Hg10 mi
1:55 am34 °FClear.8 mph60%30.39 "Hg10 mi
1:35 am34 °FClear.9 mph60%30.40 "Hg10 mi
1:15 am34 °FClear.9 mph60%30.40 "Hg10 mi
12:55 am34 °FClear.9 mph60%30.40 "Hg10 mi
12:35 am34 °FClear.8 mph60%30.41 "Hg10 mi
12:15 am34 °FClear.8 mph60%30.41 "Hg10 mi
11:55 pm
Wed, Nov 18
34 °FClear.9 mph60%30.42 "Hg10 mi
11:35 pm34 °FClear.9 mph60%30.42 "Hg10 mi
10:55 pm34 °FClear.8 mph60%30.43 "Hg10 mi
10:35 pm34 °FClear.8 mph65%30.43 "Hg10 mi
10:15 pm34 °FClear.8 mph65%30.44 "Hg10 mi
9:55 pm34 °FClear.8 mph65%30.44 "Hg10 mi
9:35 pm34 °FClear.7 mph65%30.45 "Hg10 mi
9:15 pm34 °FClear.8 mph65%30.46 "Hg10 mi
8:35 pm34 °FClear.7 mph65%30.47 "Hg10 mi
8:15 pm34 °FClear.7 mph60%30.47 "Hg10 mi
7:55 pm34 °FClear.7 mph60%30.47 "Hg10 mi
7:35 pm34 °FClear.6 mph65%30.48 "Hg10 mi
7:15 pm34 °FClear.5 mph65%30.49 "Hg10 mi
6:55 pm36 °FClear.6 mph60%30.49 "Hg10 mi
6:35 pm36 °FClear.6 mph60%30.50 "Hg10 mi
6:15 pm36 °FClear.5 mph60%30.50 "Hg10 mi
5:55 pm36 °FClear.5 mph60%30.50 "Hg10 mi
5:35 pm37 °FClear.5 mph56%30.51 "Hg10 mi
5:15 pm37 °FClear.5 mph56%30.52 "Hg10 mi
4:55 pm39 °FSunny.6 mph52%30.52 "Hg10 mi
4:35 pm41 °FSunny.7 mph45%30.52 "Hg10 mi
4:15 pm41 °FSunny.8 mph45%30.52 "Hg10 mi
3:55 pm43 °FSunny.9 mph46%30.53 "Hg10 mi
3:35 pm43 °FSunny.9 mph42%30.53 "Hg10 mi
3:15 pm43 °FSunny.5 mph42%30.53 "Hg10 mi
2:35 pm43 °FSunny.6 mph42%30.54 "Hg10 mi
2:15 pm43 °FSunny.6 mph42%30.54 "Hg10 mi
1:35 pm41 °FSunny.3 mph45%30.55 "Hg10 mi
1:15 pm41 °FSunny.3 mph45%30.56 "Hg10 mi
12:55 pm39 °FSunny.7 mph52%30.56 "Hg10 mi
12:35 pm39 °FSunny.3 mph48%30.57 "Hg10 mi
12:15 pm39 °FSunny.6 mph48%30.58 "Hg10 mi
11:55 am39 °FSunny.5 mph52%30.59 "Hg10 mi
11:35 am37 °FSunny.3 mph52%30.60 "Hg10 mi
11:15 am37 °FSunny.No wind52%30.60 "Hg10 mi
10:55 am37 °FSunny.5 mph52%30.62 "Hg10 mi
10:35 am36 °FSunny.3 mph56%30.61 "Hg10 mi
9:55 am34 °FSunny.No wind56%30.61 "Hg10 mi
9:35 am34 °FSunny.No wind60%30.60 "Hg10 mi
9:15 am32 °FSunny.No wind64%30.59 "Hg10 mi
8:35 am28 °FSunny.No wind74%30.59 "Hg10 mi
8:15 am27 °FSunny.No wind80%30.59 "Hg10 mi
7:55 am25 °FSunny.No wind80%30.59 "Hg10 mi
7:35 am25 °FSunny.5 mph80%30.58 "Hg10 mi
7:15 am23 °FClear.8 mph86%30.58 "Hg10 mi
6:55 am23 °FClear.6 mph86%30.57 "Hg10 mi
6:35 am23 °FClear.6 mph86%30.57 "Hg10 mi
6:15 am23 °FClear.7 mph86%30.57 "Hg10 mi
Weather by CustomWeather, © 2020

See weather overview